Time;durP1;ratioP1;P1;durP2;ratioP2;P2;SDS_P1;SDS_P2;PMS_P1;PMS_P2;Temp;Humidity;BMP_temperature;BMP_pressure;BME280_temperature;BME280_humidity;BME280_pressure;Samples;Min_cycle;Max_cycle;Signal;HPM_P1;HPM_P2
2023/04/09 00:00:19;;;;;;;9.73;8.47;;;11.20;66.70;11.20;97037.00;;;;5039726;28;20197;-84
2023/04/09 00:02:47;;;;;;;11.63;9.13;;;11.20;66.70;11.20;97031.00;;;;5020861;28;20635;-85
2023/04/09 00:05:15;;;;;;;10.63;8.93;;;11.20;66.70;11.10;97028.00;;;;5026408;28;20320;-85
2023/04/09 00:07:43;;;;;;;11.43;9.00;;;11.20;66.80;11.10;97027.00;;;;5038138;28;20312;-85
2023/04/09 00:10:10;;;;;;;12.00;9.97;;;11.20;66.80;11.10;97022.00;;;;5036662;28;20582;-83
2023/04/09 00:12:37;;;;;;;12.37;9.10;;;11.10;66.80;11.10;97028.00;;;;5037614;28;20300;-86
2023/04/09 00:15:06;;;;;;;11.33;8.80;;;11.10;66.80;11.10;97016.00;;;;5043379;28;20257;-86
2023/04/09 00:17:33;;;;;;;11.37;9.40;;;11.10;66.90;11.10;97016.00;;;;5051378;28;20224;-88
2023/04/09 00:20:00;;;;;;;10.23;8.23;;;11.10;67.00;11.10;97011.00;;;;5051954;28;20181;-88
2023/04/09 00:22:31;;;;;;;13.17;9.20;;;11.10;67.00;11.00;97010.00;;;;5061148;28;20307;-85
2023/04/09 00:24:58;;;;;;;11.97;8.30;;;11.10;67.00;11.00;97004.00;;;;5038969;28;20208;-84
2023/04/09 00:27:25;;;;;;;11.33;8.90;;;11.10;67.10;11.00;97008.00;;;;5039286;28;20618;-84
2023/04/09 00:29:54;;;;;;;10.60;8.70;;;11.00;67.10;11.00;97011.00;;;;5037766;28;20193;-85
2023/04/09 00:32:21;;;;;;;9.77;8.20;;;11.00;67.20;11.00;97013.00;;;;5035752;28;20253;-85
2023/04/09 00:34:48;;;;;;;10.43;9.30;;;11.00;67.20;11.00;97016.00;;;;5036130;28;20275;-84
2023/04/09 00:37:16;;;;;;;11.77;9.43;;;11.00;67.20;11.00;97013.00;;;;5033931;28;20708;-85
2023/04/09 00:39:45;;;;;;;12.63;9.77;;;11.00;67.30;11.00;97005.00;;;;5035105;28;20203;-84
2023/04/09 00:42:13;;;;;;;10.80;8.90;;;11.00;67.40;11.00;97008.00;;;;5037333;28;20233;-85
2023/04/09 00:44:40;;;;;;;12.00;9.43;;;11.00;67.40;11.00;97013.00;;;;5040638;28;20209;-85
2023/04/09 00:47:07;;;;;;;10.23;8.70;;;11.00;67.30;11.00;97012.00;;;;5038581;28;20304;-84
2023/04/09 00:49:34;;;;;;;10.30;8.67;;;11.00;67.30;10.90;97009.00;;;;5016905;28;20211;-85
2023/04/09 00:52:02;;;;;;;11.63;9.17;;;11.00;67.30;10.90;97004.00;;;;5034766;28;20228;-85
2023/04/09 00:54:29;;;;;;;12.23;8.60;;;11.00;67.30;10.90;97001.00;;;;5017837;28;20674;-84
2023/04/09 00:56:59;;;;;;;11.67;9.03;;;11.00;67.40;10.90;97008.00;;;;5015798;28;20244;-84
2023/04/09 00:59:26;;;;;;;10.77;9.40;;;11.00;67.50;10.90;97010.00;;;;5036268;28;20204;-85
2023/04/09 01:01:54;;;;;;;10.73;8.97;;;11.00;67.50;10.90;97003.00;;;;5034166;28;20343;-86
2023/04/09 01:04:23;;;;;;;10.20;8.17;;;11.00;67.60;10.90;97003.00;;;;5016717;28;20221;-84
2023/04/09 01:06:55;;;;;;;11.13;8.90;;;11.00;67.50;10.90;97012.00;;;;5034002;28;20221;-85
2023/04/09 01:09:33;;;;;;;11.70;8.67;;;11.00;67.50;10.90;97006.00;;;;5033586;28;20205;-85
2023/04/09 01:12:14;;;;;;;10.13;8.30;;;11.00;67.50;10.90;97002.00;;;;5034744;28;21186;-85
2023/04/09 01:14:53;;;;;;;11.03;9.17;;;11.00;67.60;10.90;97003.00;;;;5033182;28;20215;-84
2023/04/09 01:17:31;;;;;;;11.47;8.87;;;10.90;67.40;10.90;96998.00;;;;5034757;28;20292;-85
2023/04/09 01:20:05;;;;;;;9.80;8.80;;;10.90;67.30;10.90;96989.00;;;;5017371;28;20285;-85
2023/04/09 01:22:52;;;;;;;9.67;8.33;;;10.90;67.50;10.90;96998.00;;;;5016171;28;20231;-85
2023/04/09 01:25:39;;;;;;;8.70;7.80;;;10.90;67.50;10.90;97005.00;;;;5019561;28;20292;-85
2023/04/09 01:28:33;;;;;;;9.80;8.10;;;10.90;67.60;10.90;97003.00;;;;5011963;28;20221;-84
2023/04/09 01:31:13;;;;;;;8.73;7.83;;;10.90;67.70;10.90;96992.00;;;;5033592;28;20709;-86
2023/04/09 01:33:41;;;;;;;9.00;8.00;;;10.90;67.40;10.90;96997.00;;;;5024040;28;20228;-84
2023/04/09 01:36:10;;;;;;;10.40;8.23;;;10.90;67.40;10.90;96999.00;;;;5037708;28;20201;-85
2023/04/09 01:38:41;;;;;;;9.93;8.10;;;10.90;67.40;10.80;96998.00;;;;5039247;28;20201;-85
2023/04/09 01:41:11;;;;;;;8.47;6.90;;;10.90;67.40;10.80;96996.00;;;;5037623;28;20284;-84
2023/04/09 01:43:42;;;;;;;8.83;7.43;;;10.90;67.50;10.80;96991.00;;;;5033124;28;20307;-85
2023/04/09 01:46:11;;;;;;;8.20;7.33;;;10.90;67.60;10.80;97000.00;;;;4996754;28;20198;-85
2023/04/09 01:48:39;;;;;;;7.97;7.17;;;10.80;67.50;10.80;97002.00;;;;5036302;28;20308;-87
2023/04/09 01:51:06;;;;;;;9.20;7.47;;;10.80;67.50;10.80;97001.00;;;;5028497;28;20197;-85
2023/04/09 01:53:34;;;;;;;8.07;6.93;;;10.80;67.50;10.80;96991.00;;;;5033179;28;20304;-85
2023/04/09 01:56:02;;;;;;;8.30;7.20;;;10.80;67.60;10.80;96986.00;;;;5022887;28;20672;-84
2023/04/09 01:58:29;;;;;;;8.63;7.50;;;10.80;67.60;10.80;96981.00;;;;5017444;28;20198;-85
2023/04/09 02:01:10;;;;;;;8.23;7.43;;;10.80;67.70;10.80;96980.00;;;;5039598;28;20197;-85
2023/04/09 02:03:46;;;;;;;9.90;7.23;;;10.80;67.90;10.80;97002.00;;;;5020987;28;20239;-85
2023/04/09 02:06:17;;;;;;;9.53;7.70;;;10.80;67.90;10.80;97005.00;;;;5030632;28;20628;-84
2023/04/09 02:08:47;;;;;;;8.77;7.37;;;10.80;67.90;10.70;97005.00;;;;5035511;28;20720;-84
2023/04/09 02:11:16;;;;;;;8.03;7.23;;;10.80;68.00;10.80;97000.00;;;;5044777;28;20231;-84
2023/04/09 02:13:46;;;;;;;10.47;8.07;;;10.80;68.00;10.80;97006.00;;;;5035377;28;20224;-85
2023/04/09 02:16:16;;;;;;;8.60;7.43;;;10.80;68.00;10.80;97000.00;;;;5032530;28;20196;-84
2023/04/09 02:18:44;;;;;;;9.13;8.07;;;10.80;68.00;10.80;96998.00;;;;5021464;28;20223;-84
2023/04/09 02:21:12;;;;;;;10.30;8.23;;;10.80;68.00;10.80;96993.00;;;;5037594;28;20197;-84
2023/04/09 02:23:39;;;;;;;8.93;7.57;;;10.80;68.00;10.80;96992.00;;;;5034093;28;20244;-84
2023/04/09 02:26:07;;;;;;;8.33;7.53;;;10.80;67.90;10.70;96998.00;;;;5039071;28;20282;-84
2023/04/09 02:28:34;;;;;;;8.80;7.90;;;10.80;67.90;10.70;97006.00;;;;5035643;28;20332;-84
2023/04/09 02:31:02;;;;;;;8.03;7.23;;;10.80;67.80;10.70;97027.00;;;;5011557;28;20613;-84
2023/04/09 02:33:31;;;;;;;9.13;7.97;;;10.70;67.80;10.70;97019.00;;;;5041227;28;20217;-84
2023/04/09 02:35:58;;;;;;;8.03;7.03;;;10.70;67.80;10.70;97018.00;;;;5042269;28;20284;-84
2023/04/09 02:38:25;;;;;;;8.73;7.90;;;10.70;67.90;10.70;97014.00;;;;5021385;28;20197;-85
2023/04/09 02:40:52;;;;;;;8.37;7.50;;;10.70;67.90;10.60;97017.00;;;;5044652;28;20733;-85
2023/04/09 02:43:20;;;;;;;8.60;7.70;;;10.70;68.00;10.60;97020.00;;;;5043270;28;20226;-84
2023/04/09 02:45:47;;;;;;;8.00;7.20;;;10.70;68.00;10.60;97019.00;;;;5045614;28;20287;-84
2023/04/09 02:48:15;;;;;;;8.90;7.87;;;10.70;68.00;10.60;97009.00;;;;5019022;28;20235;-84
2023/04/09 02:50:43;;;;;;;7.80;7.00;;;10.70;68.00;10.50;97010.00;;;;5027713;28;20215;-84
2023/04/09 02:53:10;;;;;;;9.10;7.97;;;10.60;68.00;10.50;97010.00;;;;5036238;28;20259;-84
2023/04/09 02:55:38;;;;;;;7.47;6.70;;;10.60;68.00;10.50;97012.00;;;;5040267;28;20281;-88
2023/04/09 02:58:05;;;;;;;8.33;7.50;;;10.60;67.90;10.40;97012.00;;;;5028562;28;20870;-84
2023/04/09 03:00:32;;;;;;;7.50;6.57;;;10.60;67.80;10.40;97007.00;;;;5037033;28;20284;-84
2023/04/09 03:02:59;;;;;;;6.97;6.27;;;10.50;67.70;10.40;97010.00;;;;5019351;28;20213;-84
2023/04/09 03:05:27;;;;;;;7.00;6.40;;;10.50;67.80;10.40;97011.00;;;;5010602;28;20699;-84
2023/04/09 03:07:57;;;;;;;7.50;6.37;;;10.50;68.00;10.40;97009.00;;;;5053607;28;20220;-84
2023/04/09 03:10:24;;;;;;;7.00;6.27;;;10.50;68.10;10.40;97006.00;;;;5034903;28;20579;-85
2023/04/09 03:12:51;;;;;;;7.33;6.53;;;10.40;68.00;10.30;97004.00;;;;5033647;28;20276;-82
2023/04/09 03:15:18;;;;;;;6.13;5.60;;;10.40;68.10;10.30;97005.00;;;;5041984;28;20273;-86
2023/04/09 03:17:45;;;;;;;7.23;6.60;;;10.40;68.30;10.30;97012.00;;;;5047671;28;20272;-85
2023/04/09 03:20:13;;;;;;;7.30;6.23;;;10.40;68.40;10.30;97003.00;;;;5050212;28;20636;-84
2023/04/09 03:22:42;;;;;;;7.10;6.40;;;10.40;68.50;10.30;97003.00;;;;5055110;28;20243;-85
2023/04/09 03:25:11;;;;;;;6.70;6.10;;;10.40;68.60;10.30;97004.00;;;;5032853;28;20229;-84
2023/04/09 03:27:38;;;;;;;7.07;6.37;;;10.40;68.70;10.30;96993.00;;;;5048256;28;20223;-85
2023/04/09 03:30:10;;;;;;;7.87;7.13;;;10.40;68.60;10.30;96999.00;;;;5042840;28;20209;-84
2023/04/09 03:32:37;;;;;;;7.40;6.60;;;10.40;68.70;10.30;96996.00;;;;5042837;28;20246;-84
2023/04/09 03:35:06;;;;;;;7.30;6.60;;;10.40;68.50;10.30;96991.00;;;;5028238;28;20680;-84
2023/04/09 03:37:33;;;;;;;6.37;5.77;;;10.40;68.50;10.30;97002.00;;;;5036921;28;20209;-84
2023/04/09 03:40:00;;;;;;;6.43;5.80;;;10.30;68.40;10.30;97001.00;;;;5034063;28;20193;-84
2023/04/09 03:42:29;;;;;;;6.03;5.53;;;10.30;68.40;10.20;96999.00;;;;5043056;28;20304;-84
2023/04/09 03:44:59;;;;;;;7.07;6.37;;;10.30;68.40;10.20;96999.00;;;;5036872;28;20198;-84
2023/04/09 03:47:26;;;;;;;6.43;5.50;;;10.30;68.40;10.20;97003.00;;;;5002120;28;20225;-84
2023/04/09 03:49:54;;;;;;;7.00;5.83;;;10.30;68.40;10.20;97005.00;;;;5047437;28;20197;-84
2023/04/09 03:52:21;;;;;;;6.63;6.03;;;10.30;68.30;10.20;97004.00;;;;5021593;28;20717;-84
2023/04/09 03:54:49;;;;;;;6.07;5.50;;;10.30;68.20;10.10;97007.00;;;;5045551;28;20204;-84
2023/04/09 03:57:19;;;;;;;6.20;5.70;;;10.20;68.10;10.10;97008.00;;;;5046738;28;20219;-84
2023/04/09 03:59:48;;;;;;;7.30;6.20;;;10.20;68.20;10.10;97000.00;;;;5035514;28;20201;-85
2023/04/09 04:02:15;;;;;;;6.23;5.63;;;10.20;68.10;10.10;97008.00;;;;5035774;28;20701;-83
2023/04/09 04:04:42;;;;;;;6.50;5.90;;;10.20;68.20;10.00;97014.00;;;;5029665;28;20729;-83
2023/04/09 04:07:17;;;;;;;6.00;5.50;;;10.20;68.30;10.00;96996.00;;;;5025298;28;20653;-83
2023/04/09 04:09:44;;;;;;;7.23;6.53;;;10.10;68.30;10.00;97004.00;;;;5047801;28;20204;-84
2023/04/09 04:12:11;;;;;;;7.53;6.03;;;10.10;68.40;10.00;97002.00;;;;5003485;28;20201;-84
2023/04/09 04:14:39;;;;;;;6.93;6.23;;;10.10;68.40;10.00;97005.00;;;;5051677;28;20193;-85
2023/04/09 04:17:07;;;;;;;7.17;5.93;;;10.10;69.10;9.90;96998.00;;;;5041154;28;20193;-84
2023/04/09 04:19:34;;;;;;;7.23;6.07;;;10.10;68.40;9.90;97010.00;;;;5035037;28;20231;-84
2023/04/09 04:22:02;;;;;;;6.23;5.63;;;10.10;68.40;9.90;97013.00;;;;5037301;28;20203;-84
2023/04/09 04:24:29;;;;;;;6.23;5.63;;;10.00;68.20;9.90;97007.00;;;;5021897;28;20197;-84
2023/04/09 04:26:56;;;;;;;7.60;6.80;;;10.00;68.20;9.80;97011.00;;;;5033939;28;20546;-84
2023/04/09 04:29:23;;;;;;;7.17;6.20;;;10.00;68.20;9.80;97011.00;;;;5016609;28;20304;-83
2023/04/09 04:31:51;;;;;;;6.03;5.40;;;10.00;68.10;9.70;97020.00;;;;5016161;28;20194;-84
2023/04/09 04:34:19;;;;;;;6.23;5.73;;;9.90;67.90;9.70;97018.00;;;;5034034;28;20253;-84
2023/04/09 04:36:46;;;;;;;6.83;6.23;;;9.90;67.60;9.60;97018.00;;;;5044478;28;20272;-84
2023/04/09 04:39:14;;;;;;;6.77;6.03;;;9.80;67.40;9.50;97019.00;;;;5040183;28;20211;-84
2023/04/09 04:41:41;;;;;;;6.50;5.87;;;9.80;67.40;9.50;97012.00;;;;5041501;28;20193;-85
2023/04/09 04:44:10;;;;;;;6.30;5.70;;;9.70;67.30;9.40;97017.00;;;;5030938;28;20223;-84
2023/04/09 04:46:37;;;;;;;6.40;5.80;;;9.70;67.40;9.40;97027.00;;;;5039580;28;20217;-84
2023/04/09 04:49:04;;;;;;;7.37;6.67;;;9.70;67.40;9.30;97021.00;;;;5036469;28;20591;-84
2023/04/09 04:51:33;;;;;;;6.40;5.73;;;9.60;67.20;9.20;97011.00;;;;5038335;28;20201;-84
2023/04/09 04:54:00;;;;;;;6.47;5.87;;;9.50;67.00;9.20;97025.00;;;;5053908;28;20247;-84
2023/04/09 04:56:28;;;;;;;6.43;5.83;;;9.50;67.80;9.10;97025.00;;;;5065951;28;20224;-88
2023/04/09 04:58:55;;;;;;;6.43;5.80;;;9.40;67.20;9.10;97017.00;;;;5028326;28;20284;-84
2023/04/09 05:01:22;;;;;;;7.10;6.00;;;9.30;67.20;9.00;97014.00;;;;5045440;28;20679;-84
2023/04/09 05:03:49;;;;;;;7.63;5.70;;;9.30;67.40;9.00;97022.00;;;;5043416;28;20303;-84
2023/04/09 05:06:17;;;;;;;5.87;5.27;;;9.20;67.60;9.00;97013.00;;;;5046792;28;20292;-84
2023/04/09 05:08:45;;;;;;;6.13;5.53;;;9.20;68.30;8.90;97011.00;;;;5031975;28;20217;-84
2023/04/09 05:11:14;;;;;;;6.20;5.60;;;9.20;67.50;8.90;97011.00;;;;5014489;28;20204;-84
2023/04/09 05:13:41;;;;;;;6.53;5.90;;;9.10;67.30;8.80;97008.00;;;;5040346;28;20221;-83
2023/04/09 05:16:09;;;;;;;6.37;5.77;;;9.10;67.30;8.80;97014.00;;;;5028911;28;20197;-84
2023/04/09 05:18:36;;;;;;;6.40;5.70;;;9.00;67.10;8.70;97015.00;;;;5046869;28;20227;-83
2023/04/09 05:21:04;;;;;;;5.93;5.40;;;9.00;67.00;8.70;97021.00;;;;5032286;28;20196;-84
2023/04/09 05:23:31;;;;;;;6.60;5.80;;;8.90;67.10;8.60;97014.00;;;;5048905;28;20232;-84
2023/04/09 05:26:00;;;;;;;6.10;5.50;;;8.90;67.30;8.60;97019.00;;;;5039314;28;20681;-84
2023/04/09 05:28:27;;;;;;;6.30;5.70;;;8.80;67.40;8.60;97013.00;;;;5037832;28;20245;-84
2023/04/09 05:30:54;;;;;;;6.03;5.43;;;8.90;67.70;8.60;97019.00;;;;5046322;28;20287;-84
2023/04/09 05:33:21;;;;;;;6.00;5.40;;;8.80;67.80;8.60;97026.00;;;;5052415;28;20228;-84
2023/04/09 05:35:49;;;;;;;6.43;5.63;;;8.80;67.80;8.60;97022.00;;;;5038835;28;20194;-84
2023/04/09 05:38:16;;;;;;;6.57;5.87;;;8.70;67.90;8.50;97031.00;;;;5039934;28;20209;-84
2023/04/09 05:40:44;;;;;;;6.33;5.73;;;8.70;67.90;8.50;97026.00;;;;5037253;28;20197;-83
2023/04/09 05:43:13;;;;;;;5.67;5.17;;;8.70;68.10;8.60;97031.00;;;;5042661;28;20696;-82
2023/04/09 05:45:40;;;;;;;6.23;5.63;;;8.70;68.30;8.60;97029.00;;;;5045916;28;20561;-82
2023/04/09 05:48:07;;;;;;;7.37;6.10;;;8.70;68.50;8.70;97030.00;;;;5044327;28;20228;-83
2023/04/09 05:50:35;;;;;;;6.10;5.60;;;8.70;68.60;8.80;97040.00;;;;5037764;28;20224;-84
2023/04/09 05:53:02;;;;;;;6.40;5.80;;;8.80;68.80;8.80;97042.00;;;;5040125;28;20224;-84
2023/04/09 05:55:31;;;;;;;7.27;5.47;;;8.80;68.80;8.90;97042.00;;;;5033974;28;20284;-84
2023/04/09 05:57:59;;;;;;;6.73;6.03;;;8.80;69.00;9.00;97043.00;;;;5031822;28;20221;-83
2023/04/09 06:00:28;;;;;;;6.17;5.57;;;8.90;69.10;9.00;97048.00;;;;5025087;28;20193;-84
2023/04/09 06:02:55;;;;;;;6.53;5.93;;;8.90;69.30;9.10;97035.00;;;;5036734;28;20312;-85
2023/04/09 06:05:23;;;;;;;7.10;6.40;;;9.00;69.40;9.20;97044.00;;;;5038155;28;20648;-84
2023/04/09 06:07:50;;;;;;;6.47;5.63;;;9.00;69.40;9.30;97049.00;;;;5044725;28;20259;-84
2023/04/09 06:10:17;;;;;;;7.50;6.70;;;9.10;69.50;9.40;97051.00;;;;5036501;28;20777;-84
2023/04/09 06:12:44;;;;;;;6.80;6.20;;;9.20;69.50;9.40;97043.00;;;;5040670;28;20300;-85
2023/04/09 06:15:15;;;;;;;7.40;6.70;;;9.20;69.50;9.40;97052.00;;;;5039604;28;20194;-85
2023/04/09 06:17:43;;;;;;;7.10;6.40;;;9.30;69.60;9.50;97052.00;;;;5024947;28;20211;-84
2023/04/09 06:20:11;;;;;;;6.70;6.00;;;9.30;69.50;9.50;97047.00;;;;5028190;28;20699;-84
2023/04/09 06:22:38;;;;;;;7.37;6.67;;;9.30;69.50;9.50;97045.00;;;;5036435;28;20267;-84
2023/04/09 06:25:07;;;;;;;6.80;6.03;;;9.40;69.50;9.50;97046.00;;;;5042370;28;20211;-87
2023/04/09 06:27:34;;;;;;;6.97;6.27;;;9.40;69.50;9.60;97048.00;;;;5038169;28;20196;-85
2023/04/09 06:30:02;;;;;;;8.10;6.10;;;9.40;69.50;9.60;97054.00;;;;5027018;28;20213;-82
2023/04/09 06:32:29;;;;;;;6.53;5.93;;;9.50;69.60;9.60;97060.00;;;;5017418;28;20217;-84
2023/04/09 06:34:58;;;;;;;6.73;6.17;;;9.50;69.70;9.60;97062.00;;;;5036251;28;20201;-83
2023/04/09 06:37:25;;;;;;;7.20;6.50;;;9.50;69.80;9.70;97064.00;;;;5036889;28;20626;-84
2023/04/09 06:39:52;;;;;;;6.67;6.00;;;9.60;70.00;9.70;97064.00;;;;5052065;28;20311;-81
2023/04/09 06:42:20;;;;;;;7.27;6.57;;;9.60;70.00;9.70;97068.00;;;;5034507;28;20217;-85
2023/04/09 06:44:47;;;;;;;7.03;6.43;;;9.60;70.10;9.80;97077.00;;;;5039590;28;20293;-84
2023/04/09 06:47:14;;;;;;;6.90;6.30;;;9.60;70.20;9.90;97070.00;;;;5021534;28;20216;-83
2023/04/09 06:49:43;;;;;;;7.47;6.77;;;9.70;71.00;10.00;97069.00;;;;5031263;28;20780;-85
2023/04/09 06:52:11;;;;;;;7.30;6.60;;;9.80;70.60;10.10;97074.00;;;;5028004;28;20205;-84
2023/04/09 06:54:39;;;;;;;7.13;6.43;;;9.90;70.70;10.20;97066.00;;;;5028926;28;20206;-85
2023/04/09 06:57:07;;;;;;;7.17;6.47;;;9.90;70.60;10.40;97064.00;;;;5031987;28;20753;-84
2023/04/09 06:59:34;;;;;;;7.03;6.33;;;10.00;70.70;10.50;97057.00;;;;5033502;28;20582;-84
2023/04/09 07:02:04;;;;;;;7.47;6.77;;;10.10;70.80;10.60;97068.00;;;;5010980;28;20194;-85
2023/04/09 07:04:31;;;;;;;8.07;7.07;;;10.20;70.80;10.70;97066.00;;;;5037807;28;20264;-85
2023/04/09 07:07:00;;;;;;;8.70;7.80;;;10.30;70.90;10.90;97069.00;;;;5038013;28;20228;-84
2023/04/09 07:09:30;;;;;;;8.83;7.93;;;10.40;71.00;11.00;97074.00;;;;5035060;28;20712;-88
2023/04/09 07:11:57;;;;;;;8.53;7.73;;;10.60;70.80;11.10;97063.00;;;;5039027;28;20200;-85
2023/04/09 07:14:24;;;;;;;9.30;8.30;;;10.60;70.60;11.10;97062.00;;;;5043226;28;20257;-84
2023/04/09 07:16:51;;;;;;;8.73;7.93;;;10.80;70.50;11.20;97072.00;;;;5038649;28;20209;-84
2023/04/09 07:19:19;;;;;;;7.53;6.83;;;10.90;70.20;11.30;97071.00;;;;5029204;28;20205;-85
2023/04/09 07:21:46;;;;;;;7.77;7.07;;;10.90;69.90;11.30;97069.00;;;;5019226;28;20276;-85
2023/04/09 07:24:13;;;;;;;8.60;7.70;;;11.00;69.80;11.40;97077.00;;;;5027110;28;20308;-83
2023/04/09 07:26:42;;;;;;;9.87;8.33;;;11.10;69.70;11.50;97066.00;;;;5037349;28;20627;-84
2023/04/09 07:29:09;;;;;;;9.13;8.00;;;11.20;69.70;11.60;97072.00;;;;5046404;28;20217;-81
2023/04/09 07:31:36;;;;;;;7.83;7.03;;;11.30;69.60;11.70;97075.00;;;;5040634;28;20206;-84
2023/04/09 07:34:04;;;;;;;8.63;7.83;;;11.40;69.60;11.90;97078.00;;;;5039523;28;20727;-85
2023/04/09 07:36:31;;;;;;;8.80;8.00;;;11.50;69.60;12.00;97080.00;;;;5051442;28;20295;-83
2023/04/09 07:39:03;;;;;;;8.03;7.30;;;11.60;69.50;12.20;97085.00;;;;5033196;28;20237;-82
2023/04/09 07:41:30;;;;;;;9.00;8.10;;;11.70;69.30;12.30;97081.00;;;;5037448;28;20601;-82
2023/04/09 07:43:59;;;;;;;8.57;7.77;;;11.80;68.80;12.30;97087.00;;;;5038661;28;20225;-82
2023/04/09 07:46:27;;;;;;;8.40;7.57;;;11.90;68.60;12.40;97088.00;;;;5046900;28;20221;-84
2023/04/09 07:48:54;;;;;;;7.97;7.17;;;12.00;68.20;12.50;97086.00;;;;5021044;28;20695;-84
2023/04/09 07:51:21;;;;;;;8.23;7.43;;;12.10;68.00;12.60;97088.00;;;;5041626;28;20200;-84
2023/04/09 07:53:48;;;;;;;7.67;6.97;;;12.20;67.90;12.70;97089.00;;;;5044258;28;20271;-84
2023/04/09 07:56:15;;;;;;;9.03;7.50;;;12.30;68.00;12.90;97095.00;;;;5047124;28;20583;-83
2023/04/09 07:58:43;;;;;;;7.63;6.93;;;12.40;67.60;13.00;97091.00;;;;5052144;28;20291;-81
2023/04/09 08:01:12;;;;;;;8.37;7.57;;;12.50;67.30;13.10;97101.00;;;;5010393;28;20208;-84
2023/04/09 08:03:39;;;;;;;7.33;6.63;;;12.60;67.30;13.30;97107.00;;;;5031767;28;20221;-84
2023/04/09 08:06:07;;;;;;;7.17;6.57;;;12.80;67.40;13.40;97108.00;;;;5050331;28;20201;-85
2023/04/09 08:08:34;;;;;;;7.40;6.70;;;12.80;67.40;13.60;97116.00;;;;5036551;28;20292;-85
2023/04/09 08:11:01;;;;;;;6.73;6.13;;;12.90;67.00;13.70;97112.00;;;;5016604;28;20255;-85
2023/04/09 08:13:29;;;;;;;6.20;5.70;;;13.10;66.70;13.80;97106.00;;;;5024359;28;20215;-85
2023/04/09 08:15:56;;;;;;;7.17;6.50;;;13.20;66.60;14.00;97116.00;;;;5030249;28;20200;-85
2023/04/09 08:18:25;;;;;;;6.77;6.17;;;13.30;66.40;14.10;97118.00;;;;5033941;28;20205;-84
2023/04/09 08:20:53;;;;;;;7.47;6.77;;;13.40;65.90;14.30;97118.00;;;;5038568;28;20189;-83
2023/04/09 08:23:20;;;;;;;6.67;6.07;;;13.60;65.30;14.50;97121.00;;;;5025138;28;20253;-85
2023/04/09 08:25:47;;;;;;;6.57;5.90;;;13.70;65.10;14.60;97123.00;;;;5044420;28;20281;-85
2023/04/09 08:28:14;;;;;;;6.33;5.73;;;13.80;65.20;14.90;97123.00;;;;5051022;28;20291;-83
2023/04/09 08:30:42;;;;;;;6.87;6.27;;;14.00;65.10;15.10;97128.00;;;;5021234;28;20225;-86
2023/04/09 08:33:09;;;;;;;6.07;5.47;;;14.10;64.50;15.20;97137.00;;;;5039350;28;20247;-85
2023/04/09 08:35:39;;;;;;;6.10;5.60;;;14.30;64.20;15.40;97137.00;;;;5036642;28;20209;-85
2023/04/09 08:38:07;;;;;;;6.03;5.47;;;14.40;63.40;15.50;97126.00;;;;5041671;28;20284;-88
2023/04/09 08:40:35;;;;;;;6.50;5.90;;;14.50;63.10;15.50;97129.00;;;;5048504;28;20208;-85
2023/04/09 08:43:06;;;;;;;6.10;5.60;;;14.70;62.70;15.60;97137.00;;;;5020301;28;20217;-86
2023/04/09 08:45:34;;;;;;;6.47;5.83;;;14.80;62.20;15.70;97138.00;;;;4999659;28;20209;-87
2023/04/09 08:48:03;;;;;;;6.27;5.77;;;14.90;62.30;15.80;97141.00;;;;5039548;28;20209;-86
2023/04/09 08:50:32;;;;;;;6.20;5.60;;;15.00;61.70;15.90;97140.00;;;;5033762;28;20225;-86
2023/04/09 08:53:04;;;;;;;5.80;5.30;;;15.10;61.00;16.00;97134.00;;;;5004874;28;20637;-86
2023/04/09 08:55:34;;;;;;;7.30;5.43;;;15.20;60.60;16.10;97135.00;;;;5032909;28;20205;-85
2023/04/09 08:58:06;;;;;;;6.67;6.03;;;15.30;60.90;16.30;97134.00;;;;5033257;28;20666;-86
2023/04/09 09:00:33;;;;;;;5.50;5.03;;;15.40;61.00;16.50;97142.00;;;;5016509;28;20293;-85
2023/04/09 09:03:07;;;;;;;5.97;5.47;;;15.50;60.70;16.60;97138.00;;;;5038740;28;20219;-85
2023/04/09 09:05:40;;;;;;;5.60;5.10;;;15.60;60.10;16.70;97141.00;;;;5016509;28;20204;-84
2023/04/09 09:08:11;;;;;;;6.73;6.13;;;15.70;59.40;16.70;97145.00;;;;5026940;28;20197;-85
2023/04/09 09:10:41;;;;;;;6.17;5.67;;;15.80;59.10;16.80;97156.00;;;;5018218;28;20243;-86
2023/04/09 09:13:21;;;;;;;6.07;5.57;;;15.90;59.20;16.90;97148.00;;;;5040733;28;20631;-89
2023/04/09 09:15:52;;;;;;;6.37;5.77;;;16.00;59.00;17.10;97152.00;;;;5045497;28;20288;-87
2023/04/09 09:18:21;;;;;;;6.10;5.50;;;16.10;58.80;17.10;97160.00;;;;5049868;28;20197;-86
2023/04/09 09:20:48;;;;;;;6.03;5.53;;;16.20;58.10;17.10;97144.00;;;;5049571;28;20201;-85
2023/04/09 09:23:17;;;;;;;6.33;5.73;;;16.30;57.70;17.10;97145.00;;;;5037635;28;20247;-92
2023/04/09 09:25:44;;;;;;;6.50;5.90;;;16.30;57.10;17.00;97151.00;;;;5075179;22;20715;-85
2023/04/09 09:28:13;;;;;;;7.03;6.17;;;16.40;57.10;17.10;97150.00;;;;5028943;28;20376;-83
2023/04/09 09:30:40;;;;;;;6.93;6.33;;;16.40;57.00;17.10;97147.00;;;;5028121;28;20616;-83
2023/04/09 09:33:10;;;;;;;6.43;5.83;;;16.40;57.10;17.10;97151.00;;;;5028731;28;20201;-83
2023/04/09 09:35:53;;;;;;;6.63;5.93;;;16.50;57.00;17.20;97154.00;;;;5028171;28;20634;-82
2023/04/09 09:38:21;;;;;;;6.07;5.53;;;16.50;55.90;17.30;97159.00;;;;5033426;28;20574;-82
2023/04/09 09:40:50;;;;;;;6.20;5.57;;;16.60;56.30;17.30;97159.00;;;;5032778;28;20209;-82
2023/04/09 09:43:18;;;;;;;6.67;6.00;;;16.60;56.30;17.30;97156.00;;;;5033304;28;20201;-83
2023/04/09 09:45:48;;;;;;;6.10;5.50;;;16.60;56.10;17.30;97152.00;;;;5033122;28;20213;-83
2023/04/09 09:48:15;;;;;;;6.17;5.57;;;16.60;55.80;17.30;97152.00;;;;5033525;28;20613;-83
2023/04/09 09:50:45;;;;;;;6.37;5.77;;;16.60;55.80;17.30;97149.00;;;;5032748;28;20221;-83
2023/04/09 09:53:17;;;;;;;6.70;6.10;;;16.70;55.60;17.30;97153.00;;;;5036289;28;20537;-82
2023/04/09 09:55:53;;;;;;;6.33;5.77;;;16.60;55.10;17.20;97150.00;;;;5051184;28;20216;-82
2023/04/09 09:58:31;;;;;;;5.87;5.37;;;16.60;55.00;17.20;97157.00;;;;5043704;28;20215;-82
2023/04/09 10:01:01;;;;;;;5.57;5.00;;;16.60;54.60;17.10;97140.00;;;;5053730;28;20219;-82
2023/04/09 10:03:32;;;;;;;6.07;5.53;;;16.60;54.30;17.00;97143.00;;;;5044396;28;20288;-84
2023/04/09 10:06:03;;;;;;;7.27;6.57;;;16.50;54.20;17.00;97145.00;;;;5035953;28;20655;-83
2023/04/09 10:08:32;;;;;;;6.97;6.27;;;16.50;54.30;17.00;97141.00;;;;5045651;28;20717;-83
2023/04/09 10:11:02;;;;;;;7.33;6.63;;;16.50;54.40;16.90;97146.00;;;;5038201;28;20479;-83
2023/04/09 10:13:34;;;;;;;7.20;6.50;;;16.40;54.30;16.90;97150.00;;;;5043272;28;20220;-83
2023/04/09 10:16:02;;;;;;;6.57;5.97;;;16.40;54.30;16.80;97151.00;;;;5042482;28;20655;-84
2023/04/09 10:18:32;;;;;;;6.70;6.10;;;16.30;54.30;16.80;97157.00;;;;5038041;28;20579;-83
2023/04/09 10:21:05;;;;;;;5.93;5.33;;;16.30;54.30;16.70;97155.00;;;;5049020;28;20227;-83
2023/04/09 10:23:39;;;;;;;6.60;5.90;;;16.30;54.30;16.70;97156.00;;;;5029780;28;20189;-83
2023/04/09 10:26:09;;;;;;;6.47;5.87;;;16.20;54.30;16.60;97159.00;;;;5048146;28;20251;-84
2023/04/09 10:28:38;;;;;;;5.90;5.37;;;16.20;54.30;16.60;97160.00;;;;5037892;28;20193;-83
2023/04/09 10:31:07;;;;;;;6.70;6.03;;;16.20;54.30;16.60;97151.00;;;;5044724;28;20303;-84
2023/04/09 10:33:38;;;;;;;7.13;6.10;;;16.10;54.30;16.50;97155.00;;;;5045438;28;20251;-84
2023/04/09 10:36:12;;;;;;;6.77;6.17;;;16.10;54.20;16.50;97158.00;;;;5043360;28;20267;-84
2023/04/09 10:38:41;;;;;;;6.57;5.97;;;16.00;54.30;16.50;97154.00;;;;5040059;28;20279;-83
2023/04/09 10:41:16;;;;;;;5.80;5.27;;;16.00;54.30;16.40;97156.00;;;;5051673;28;20208;-83
2023/04/09 10:43:47;;;;;;;6.40;5.80;;;16.00;54.40;16.40;97158.00;;;;5048773;28;20207;-83
2023/04/09 10:46:28;;;;;;;6.63;6.03;;;16.00;54.50;16.40;97151.00;;;;5055401;28;20225;-83
2023/04/09 10:49:12;;;;;;;6.13;5.53;;;16.00;54.10;16.40;97150.00;;;;5051403;28;20197;-83
2023/04/09 10:51:40;;;;;;;7.13;6.10;;;15.90;54.10;16.40;97148.00;;;;5055105;28;20291;-83
2023/04/09 10:54:48;;;;;;;6.60;5.97;;;15.90;54.50;16.30;97140.00;;;;5050254;28;20224;-83
2023/04/09 10:57:23;;;;;;;6.00;5.50;;;15.90;53.80;16.30;97145.00;;;;5054440;28;20196;-83
2023/04/09 10:59:53;;;;;;;6.20;5.70;;;15.80;54.10;16.30;97138.00;;;;5044602;28;20284;-83
2023/04/09 11:03:10;;;;;;;6.23;5.63;;;15.80;54.50;16.30;97140.00;;;;5054813;28;20203;-84
2023/04/09 11:05:39;;;;;;;6.00;5.50;;;15.80;53.80;16.40;97144.00;;;;5047711;28;20275;-83